createdAt,value
2017-12-21T00:02:14.888Z,23.05
2017-12-21T00:04:48.611Z,16.67
2017-12-21T00:07:18.547Z,22.92
2017-12-21T00:09:51.433Z,23.60
2017-12-21T00:12:20.466Z,19.50
2017-12-21T00:14:49.508Z,21.62
2017-12-21T00:17:21.050Z,18.97
2017-12-21T00:22:44.083Z,23.20
2017-12-21T00:25:15.882Z,22.37
2017-12-21T00:30:33.046Z,21.15
2017-12-21T00:33:05.831Z,21.60
2017-12-21T00:35:34.877Z,17.60
2017-12-21T00:43:15.961Z,19.62
2017-12-21T00:46:08.815Z,20.60
2017-12-21T00:48:37.897Z,15.67
2017-12-21T00:51:08.934Z,19.17
2017-12-21T00:53:45.763Z,16.03
2017-12-21T00:56:14.785Z,19.58
2017-12-21T00:58:43.856Z,15.43
2017-12-21T01:01:34.230Z,19.70
2017-12-21T01:04:08.526Z,19.55
2017-12-21T01:06:37.558Z,15.90
2017-12-21T01:09:06.601Z,17.92
2017-12-21T01:11:35.648Z,17.98
2017-12-21T01:16:43.834Z,18.25
2017-12-21T01:19:34.464Z,17.80
2017-12-21T01:24:42.846Z,18.67
2017-12-21T01:29:50.079Z,18.17
2017-12-21T01:34:54.578Z,19.40
2017-12-21T01:37:23.622Z,14.10
2017-12-21T01:39:52.686Z,19.48
2017-12-21T01:42:25.461Z,16.17
2017-12-21T01:44:54.497Z,21.02
2017-12-21T01:50:02.718Z,23.02
2017-12-21T01:52:33.677Z,20.30
2017-12-21T01:55:02.730Z,23.10
2017-12-21T01:57:33.670Z,23.62
2017-12-21T02:00:04.759Z,20.30
2017-12-21T02:02:33.790Z,23.12
2017-12-21T02:05:02.862Z,19.13
2017-12-21T02:07:32.878Z,23.67
2017-12-21T02:10:09.410Z,25.10
2017-12-21T02:12:38.569Z,19.63
2017-12-21T02:15:10.966Z,24.23
2017-12-21T02:17:40.010Z,24.60
2017-12-21T02:20:09.076Z,20.33
2017-12-21T02:22:38.127Z,24.75
2017-12-21T02:25:07.501Z,25.17
2017-12-21T02:27:36.549Z,25.27
2017-12-21T02:30:05.622Z,24.45
2017-12-21T02:32:34.634Z,18.73
2017-12-21T02:35:04.595Z,22.50
2017-12-21T02:37:33.645Z,22.58
2017-12-21T02:40:02.689Z,19.00
2017-12-21T02:42:31.775Z,23.02
2017-12-21T02:45:01.816Z,23.52
2017-12-21T02:47:30.850Z,17.70
2017-12-21T02:52:35.087Z,21.00
2017-12-21T02:55:04.121Z,21.20
2017-12-21T02:57:33.157Z,16.30
2017-12-21T03:00:02.210Z,21.77
2017-12-21T03:02:31.257Z,16.47
2017-12-21T03:05:00.294Z,19.08
2017-12-21T03:07:29.360Z,15.10
2017-12-21T03:09:58.403Z,20.12
2017-12-21T03:12:28.653Z,19.40
2017-12-21T03:14:57.690Z,14.50
2017-12-21T03:17:30.981Z,19.45
2017-12-21T03:20:05.576Z,17.43
2017-12-21T03:22:35.499Z,16.00
2017-12-21T03:25:04.537Z,18.30
2017-12-21T03:27:50.858Z,17.12
2017-12-21T03:32:59.092Z,17.00
2017-12-21T03:35:31.834Z,17.67
2017-12-21T03:38:00.882Z,13.40
2017-12-21T03:40:36.417Z,16.40
2017-12-21T03:43:05.453Z,17.55
2017-12-21T03:45:38.248Z,14.27
2017-12-21T03:48:07.294Z,16.83
2017-12-21T03:53:11.734Z,17.15
2017-12-21T03:58:28.938Z,16.92
2017-12-21T04:03:33.956Z,18.20
2017-12-21T04:06:03.895Z,15.73
2017-12-21T04:08:32.946Z,20.00
2017-12-21T04:16:25.901Z,18.87
2017-12-21T04:18:55.866Z,19.20
2017-12-21T04:21:24.906Z,18.73
2017-12-21T04:26:29.217Z,19.17
2017-12-21T04:31:34.930Z,18.67
2017-12-21T04:34:04.907Z,19.83
2017-12-21T04:36:33.987Z,19.10
2017-12-21T04:39:04.143Z,20.00
2017-12-21T04:41:33.173Z,14.60
2017-12-21T04:44:16.749Z,18.50
2017-12-21T04:46:45.777Z,20.17
2017-12-21T04:49:14.994Z,18.42
2017-12-21T04:51:44.038Z,15.33
2017-12-21T04:54:13.076Z,18.12
2017-12-21T04:56:47.480Z,19.25
2017-12-21T04:59:17.470Z,14.73
2017-12-21T05:01:46.698Z,18.20
2017-12-21T05:04:17.639Z,14.00
2017-12-21T05:06:46.692Z,18.08
2017-12-21T05:09:17.647Z,14.17
2017-12-21T05:14:23.622Z,18.05
2017-12-21T05:16:58.501Z,17.42
2017-12-21T05:19:27.541Z,14.07
2017-12-21T05:24:34.415Z,16.92
2017-12-21T05:27:17.028Z,16.80
2017-12-21T05:29:46.125Z,11.73
2017-12-21T05:32:16.119Z,14.90
2017-12-21T05:34:50.855Z,14.70
2017-12-21T05:37:19.902Z,12.17
2017-12-21T05:39:48.951Z,14.82
2017-12-21T05:42:22.340Z,11.60
2017-12-21T05:44:51.386Z,14.40
2017-12-21T05:47:26.022Z,14.90
2017-12-21T05:49:55.194Z,11.10
2017-12-21T05:52:28.047Z,13.35
2017-12-21T05:54:57.088Z,12.00
2017-12-21T06:00:01.399Z,14.65
2017-12-21T06:02:35.202Z,11.47
2017-12-21T06:07:44.485Z,13.13
2017-12-21T06:12:51.006Z,13.43
2017-12-21T06:15:20.956Z,10.77
2017-12-21T06:17:49.993Z,14.00
2017-12-21T06:20:20.242Z,11.20
2017-12-21T06:29:25.451Z,14.60
2017-12-21T06:31:55.445Z,11.17
2017-12-21T06:34:24.515Z,13.60
2017-12-21T06:36:58.142Z,15.50
2017-12-21T06:39:27.198Z,12.17
2017-12-21T06:41:56.238Z,13.02
2017-12-21T06:44:25.298Z,11.93
2017-12-21T06:47:06.808Z,13.68
2017-12-21T06:49:36.857Z,13.62
2017-12-21T06:52:11.683Z,11.17
2017-12-21T06:54:48.744Z,12.93
2017-12-21T06:57:17.783Z,10.43
2017-12-21T06:59:48.504Z,11.85
2017-12-21T07:02:17.570Z,9.40
2017-12-21T07:04:46.602Z,11.25
2017-12-21T07:07:15.637Z,11.93
2017-12-21T07:09:44.690Z,9.53
2017-12-21T07:12:13.746Z,10.45
2017-12-21T07:14:42.832Z,9.13
2017-12-21T07:17:12.004Z,10.88
2017-12-21T07:19:57.046Z,10.50
2017-12-21T07:22:26.098Z,12.50
2017-12-21T07:24:55.157Z,11.88
2017-12-21T07:27:24.197Z,10.77
2017-12-21T07:29:54.254Z,9.88
2017-12-21T07:32:26.166Z,9.77
2017-12-21T07:34:59.494Z,11.00
2017-12-21T07:37:28.542Z,9.17
2017-12-21T07:42:42.426Z,10.98
2017-12-21T07:45:12.384Z,8.97
2017-12-21T07:47:42.460Z,10.30
2017-12-21T07:50:12.918Z,8.37
2017-12-21T07:55:18.186Z,9.93
2017-12-21T07:57:47.517Z,8.13
2017-12-21T08:00:16.545Z,9.15
2017-12-21T08:05:20.783Z,8.73
2017-12-21T08:07:49.845Z,6.60
2017-12-21T08:10:19.403Z,8.02
2017-12-21T08:15:25.623Z,7.90
2017-12-21T08:20:35.566Z,7.40
2017-12-21T08:23:04.739Z,5.80
2017-12-21T08:25:33.765Z,6.15
2017-12-21T08:28:02.817Z,6.28
2017-12-21T08:30:31.853Z,5.80
2017-12-21T08:35:36.131Z,5.65
2017-12-21T08:38:12.449Z,5.03
2017-12-21T08:40:42.437Z,5.53
2017-12-21T08:43:12.292Z,4.77
2017-12-21T08:45:41.348Z,5.00
2017-12-21T08:48:11.334Z,5.13
2017-12-21T08:50:40.377Z,5.00
2017-12-21T08:53:09.411Z,4.10
2017-12-21T08:55:38.464Z,4.37
2017-12-21T09:00:42.670Z,4.18
2017-12-21T09:03:13.729Z,3.60
2017-12-21T09:05:42.742Z,4.33
2017-12-21T09:08:25.719Z,3.20
2017-12-21T09:11:21.665Z,3.70
2017-12-21T09:13:56.190Z,3.27
2017-12-21T09:16:25.217Z,3.30
2017-12-21T09:18:59.076Z,3.40
2017-12-21T09:21:28.234Z,2.80
2017-12-21T09:24:18.851Z,3.40
2017-12-21T09:26:47.885Z,2.87
2017-12-21T09:29:24.262Z,3.40
2017-12-21T09:32:04.313Z,3.10
2017-12-21T09:34:33.355Z,3.70
2017-12-21T09:37:24.991Z,3.80
2017-12-21T09:39:59.301Z,3.40
2017-12-21T09:42:28.606Z,3.03
2017-12-21T09:44:57.822Z,3.40
2017-12-21T09:47:26.850Z,3.37
2017-12-21T09:50:01.656Z,3.07
2017-12-21T09:52:30.682Z,2.83
2017-12-21T09:55:07.346Z,3.30
2017-12-21T09:57:36.378Z,3.50
2017-12-21T10:00:19.835Z,2.77
2017-12-21T10:03:24.786Z,3.27
2017-12-21T10:06:24.797Z,2.70
2017-12-21T10:09:11.032Z,3.20
2017-12-21T10:11:40.077Z,3.37
2017-12-21T10:16:44.349Z,3.55
2017-12-21T10:19:14.325Z,3.00
2017-12-21T10:21:43.389Z,3.20
2017-12-21T10:24:21.086Z,3.40
2017-12-21T10:26:50.120Z,3.43
2017-12-21T10:31:55.344Z,3.45
2017-12-21T10:34:24.581Z,4.30
2017-12-21T10:36:54.294Z,2.80
2017-12-21T10:39:23.285Z,2.90
2017-12-21T10:41:52.334Z,2.50
2017-12-21T10:44:21.358Z,3.62
2017-12-21T10:46:50.388Z,3.00
2017-12-21T10:49:38.661Z,3.60
2017-12-21T10:52:46.511Z,3.50
2017-12-21T10:55:33.813Z,3.03
2017-12-21T10:58:02.843Z,2.73
2017-12-21T11:00:41.621Z,2.80
2017-12-21T11:03:10.662Z,2.77
2017-12-21T11:05:47.468Z,2.30
2017-12-21T11:08:24.256Z,3.43
2017-12-21T11:10:53.302Z,2.40
2017-12-21T11:13:46.818Z,1.83
2017-12-21T11:16:15.850Z,2.03
2017-12-21T11:18:45.773Z,2.20
2017-12-21T11:21:44.242Z,2.77
